sensor_id;sensor_type;location;lat;lon;timestamp;pressure;altitude;pressure_sealevel;temperature;humidity
42587;BME280;28216;53.362;-6.288;2022-09-16T00:00:20;101831.66;;;13.85;84.38
42587;BME280;28216;53.362;-6.288;2022-09-16T00:02:46;101834.44;;;13.83;84.22
42587;BME280;28216;53.362;-6.288;2022-09-16T00:05:12;101837.22;;;13.82;84.28
42587;BME280;28216;53.362;-6.288;2022-09-16T00:07:38;101842.81;;;13.79;84.49
42587;BME280;28216;53.362;-6.288;2022-09-16T00:10:04;101845.28;;;13.80;84.49
42587;BME280;28216;53.362;-6.288;2022-09-16T00:12:30;101845.28;;;13.80;84.63
42587;BME280;28216;53.362;-6.288;2022-09-16T00:14:55;101844.78;;;13.77;84.54
42587;BME280;28216;53.362;-6.288;2022-09-16T00:17:21;101853.81;;;13.74;84.53
42587;BME280;28216;53.362;-6.288;2022-09-16T00:19:47;101855.94;;;13.71;84.66
42587;BME280;28216;53.362;-6.288;2022-09-16T00:22:15;101854.28;;;13.70;84.66
42587;BME280;28216;53.362;-6.288;2022-09-16T00:24:40;101858.56;;;13.71;84.54
42587;BME280;28216;53.362;-6.288;2022-09-16T00:27:06;101853.81;;;13.74;84.28
42587;BME280;28216;53.362;-6.288;2022-09-16T00:29:31;101853.66;;;13.76;84.16
42587;BME280;28216;53.362;-6.288;2022-09-16T00:31:57;101853.81;;;13.74;84.28
42587;BME280;28216;53.362;-6.288;2022-09-16T00:34:23;101853.50;;;13.77;83.86
42587;BME280;28216;53.362;-6.288;2022-09-16T00:36:49;101854.66;;;13.75;83.75
42587;BME280;28216;53.362;-6.288;2022-09-16T00:39:14;101861.19;;;13.71;83.87
42587;BME280;28216;53.362;-6.288;2022-09-16T00:41:40;101864.97;;;13.68;83.89
42587;BME280;28216;53.362;-6.288;2022-09-16T00:44:49;101865.13;;;13.66;83.95
42587;BME280;28216;53.362;-6.288;2022-09-16T00:46:52;101860.84;;;13.65;83.78
42587;BME280;28216;53.362;-6.288;2022-09-16T00:49:27;101876.66;;;13.65;84.02
42587;BME280;28216;53.362;-6.288;2022-09-16T00:52:01;101868.22;;;13.62;83.83
42587;BME280;28216;53.362;-6.288;2022-09-16T00:54:29;101871.31;;;13.57;83.92
42587;BME280;28216;53.362;-6.288;2022-09-16T00:56:57;101872.44;;;13.55;83.76
42587;BME280;28216;53.362;-6.288;2022-09-16T00:59:51;101868.44;;;13.51;84.06
42587;BME280;28216;53.362;-6.288;2022-09-16T01:02:19;101872.13;;;13.40;84.35
42587;BME280;28216;53.362;-6.288;2022-09-16T01:04:50;101879.78;;;13.33;84.70
42587;BME280;28216;53.362;-6.288;2022-09-16T01:07:42;101874.81;;;13.30;84.61
42587;BME280;28216;53.362;-6.288;2022-09-16T01:10:08;101874.88;;;13.21;84.83
42587;BME280;28216;53.362;-6.288;2022-09-16T01:12:35;101880.44;;;13.18;85.11
42587;BME280;28216;53.362;-6.288;2022-09-16T01:15:01;101875.44;;;13.15;85.34
42587;BME280;28216;53.362;-6.288;2022-09-16T01:20:34;101881.53;;;13.15;85.15
42587;BME280;28216;53.362;-6.288;2022-09-16T01:26:33;101878.28;;;13.03;85.29
42587;BME280;28216;53.362;-6.288;2022-09-16T01:42:59;101880.16;;;12.66;87.11
42587;BME280;28216;53.362;-6.288;2022-09-16T01:45:38;101888.59;;;12.60;87.46
42587;BME280;28216;53.362;-6.288;2022-09-16T01:54:05;101884.09;;;12.43;88.72
42587;BME280;28216;53.362;-6.288;2022-09-16T01:59:40;101892.84;;;12.33;89.58
42587;BME280;28216;53.362;-6.288;2022-09-16T02:02:17;101901.03;;;12.30;89.65
42587;BME280;28216;53.362;-6.288;2022-09-16T02:04:51;101886.91;;;12.31;90.03
42587;BME280;28216;53.362;-6.288;2022-09-16T02:07:22;101904.78;;;12.28;90.17
42587;BME280;28216;53.362;-6.288;2022-09-16T02:09:54;101901.59;;;12.24;90.62
42587;BME280;28216;53.362;-6.288;2022-09-16T02:12:25;101901.88;;;12.21;90.69
42587;BME280;28216;53.362;-6.288;2022-09-16T02:14:54;101903.53;;;12.22;90.82
42587;BME280;28216;53.362;-6.288;2022-09-16T02:17:24;101899.41;;;12.20;90.89
42587;BME280;28216;53.362;-6.288;2022-09-16T02:19:59;101901.63;;;12.15;91.45
42587;BME280;28216;53.362;-6.288;2022-09-16T02:22:35;101901.75;;;12.13;91.50
42587;BME280;28216;53.362;-6.288;2022-09-16T02:25:02;101895.41;;;12.06;92.02
42587;BME280;28216;53.362;-6.288;2022-09-16T02:27:29;101900.81;;;12.04;92.08
42587;BME280;28216;53.362;-6.288;2022-09-16T02:30:01;101906.22;;;12.03;92.23
42587;BME280;28216;53.362;-6.288;2022-09-16T02:32:29;101898.47;;;12.01;92.63
42587;BME280;28216;53.362;-6.288;2022-09-16T02:34:57;101902.19;;;11.99;92.48
42587;BME280;28216;53.362;-6.288;2022-09-16T02:37:33;101898.88;;;11.97;92.79
42587;BME280;28216;53.362;-6.288;2022-09-16T02:40:04;101899.16;;;11.94;92.79
42587;BME280;28216;53.362;-6.288;2022-09-16T02:42:32;101901.34;;;11.89;93.12
42587;BME280;28216;53.362;-6.288;2022-09-16T02:44:59;101893.75;;;11.86;93.15
42587;BME280;28216;53.362;-6.288;2022-09-16T02:47:30;101899.16;;;11.84;93.36
42587;BME280;28216;53.362;-6.288;2022-09-16T02:50:14;101896.66;;;11.83;93.23
42587;BME280;28216;53.362;-6.288;2022-09-16T02:55:31;101903.81;;;11.71;94.00
42587;BME280;28216;53.362;-6.288;2022-09-16T02:57:59;101910.03;;;11.70;93.83
42587;BME280;28216;53.362;-6.288;2022-09-16T03:00:25;101919.16;;;11.66;94.04
42587;BME280;28216;53.362;-6.288;2022-09-16T03:02:53;101907.84;;;11.65;94.04
42587;BME280;28216;53.362;-6.288;2022-09-16T03:05:19;101909.50;;;11.66;93.71
42587;BME280;28216;53.362;-6.288;2022-09-16T03:07:44;101907.00;;;11.65;93.88
42587;BME280;28216;53.362;-6.288;2022-09-16T03:10:13;101909.78;;;11.63;93.99
42587;BME280;28216;53.362;-6.288;2022-09-16T03:23:46;101908.25;;;11.51;94.44
42587;BME280;28216;53.362;-6.288;2022-09-16T03:26:33;101895.81;;;11.53;94.14
42587;BME280;28216;53.362;-6.288;2022-09-16T03:29:11;101900.50;;;11.40;94.42
42587;BME280;28216;53.362;-6.288;2022-09-16T03:31:45;101905.19;;;11.36;94.67
42587;BME280;28216;53.362;-6.288;2022-09-16T03:34:19;101902.69;;;11.35;95.00
42587;BME280;28216;53.362;-6.288;2022-09-16T03:36:58;101905.47;;;11.33;94.74
42587;BME280;28216;53.362;-6.288;2022-09-16T03:39:25;101907.13;;;11.34;94.81
42587;BME280;28216;53.362;-6.288;2022-09-16T03:41:52;101909.75;;;11.34;94.78
42587;BME280;28216;53.362;-6.288;2022-09-16T03:44:19;101911.69;;;11.32;94.62
42587;BME280;28216;53.362;-6.288;2022-09-16T03:46:46;101910.03;;;11.31;94.74
42587;BME280;28216;53.362;-6.288;2022-09-16T03:49:11;101911.13;;;11.29;94.79
42587;BME280;28216;53.362;-6.288;2022-09-16T03:51:37;101913.88;;;11.27;94.97
42587;BME280;28216;53.362;-6.288;2022-09-16T03:54:02;101909.59;;;11.26;95.07
42587;BME280;28216;53.362;-6.288;2022-09-16T03:56:28;101908.06;;;11.24;95.23
42587;BME280;28216;53.362;-6.288;2022-09-16T03:58:54;101918.72;;;11.22;95.26
42587;BME280;28216;53.362;-6.288;2022-09-16T04:01:19;101921.34;;;11.22;95.24
42587;BME280;28216;53.362;-6.288;2022-09-16T04:03:45;101915.38;;;11.20;95.38
42587;BME280;28216;53.362;-6.288;2022-09-16T04:06:11;101917.31;;;11.18;95.28
42587;BME280;28216;53.362;-6.288;2022-09-16T04:08:36;101918.97;;;11.19;95.44
42587;BME280;28216;53.362;-6.288;2022-09-16T04:11:04;101926.28;;;11.16;95.32
42587;BME280;28216;53.362;-6.288;2022-09-16T04:13:32;101918.09;;;11.09;95.69
42587;BME280;28216;53.362;-6.288;2022-09-16T04:15:58;101913.25;;;11.04;96.17
42587;BME280;28216;53.362;-6.288;2022-09-16T04:18:24;101914.34;;;11.02;96.08
42587;BME280;28216;53.362;-6.288;2022-09-16T04:20:54;101919.88;;;10.99;96.33
42587;BME280;28216;53.362;-6.288;2022-09-16T04:23:20;101920.00;;;10.97;96.45
42587;BME280;28216;53.362;-6.288;2022-09-16T04:25:59;101920.25;;;10.94;96.43
42587;BME280;28216;53.362;-6.288;2022-09-16T04:28:26;101917.22;;;10.89;96.76
42587;BME280;28216;53.362;-6.288;2022-09-16T04:30:52;101919.13;;;10.87;97.09
42587;BME280;28216;53.362;-6.288;2022-09-16T04:33:17;101918.56;;;10.83;97.11
42587;BME280;28216;53.362;-6.288;2022-09-16T04:35:43;101918.84;;;10.80;97.70
42587;BME280;28216;53.362;-6.288;2022-09-16T04:38:08;101912.88;;;10.78;97.67
42587;BME280;28216;53.362;-6.288;2022-09-16T04:40:34;101910.41;;;10.77;97.57
42587;BME280;28216;53.362;-6.288;2022-09-16T04:43:00;101914.94;;;10.75;97.87
42587;BME280;28216;53.362;-6.288;2022-09-16T04:45:25;101926.41;;;10.74;98.12
42587;BME280;28216;53.362;-6.288;2022-09-16T04:47:57;101923.09;;;10.72;98.32
42587;BME280;28216;53.362;-6.288;2022-09-16T04:50:23;101933.84;;;10.69;98.34
42587;BME280;28216;53.362;-6.288;2022-09-16T04:52:49;101940.03;;;10.68;98.64
42587;BME280;28216;53.362;-6.288;2022-09-16T04:55:16;101936.59;;;10.67;98.69
42587;BME280;28216;53.362;-6.288;2022-09-16T04:57:42;101941.84;;;10.67;98.57
42587;BME280;28216;53.362;-6.288;2022-09-16T05:00:08;101937.56;;;10.66;98.84
42587;BME280;28216;53.362;-6.288;2022-09-16T05:02:33;101939.34;;;10.66;98.88
42587;BME280;28216;53.362;-6.288;2022-09-16T05:04:59;101952.59;;;10.64;98.75
42587;BME280;28216;53.362;-6.288;2022-09-16T05:07:24;101951.91;;;10.62;99.06
42587;BME280;28216;53.362;-6.288;2022-09-16T05:09:51;101951.06;;;10.62;98.92
42587;BME280;28216;53.362;-6.288;2022-09-16T05:12:17;101947.75;;;10.60;99.17
42587;BME280;28216;53.362;-6.288;2022-09-16T05:14:42;101950.50;;;10.58;99.23
42587;BME280;28216;53.362;-6.288;2022-09-16T05:17:07;101956.13;;;10.54;99.49
42587;BME280;28216;53.362;-6.288;2022-09-16T05:19:33;101954.47;;;10.53;99.59
42587;BME280;28216;53.362;-6.288;2022-09-16T05:21:59;101954.34;;;10.54;99.46
42587;BME280;28216;53.362;-6.288;2022-09-16T05:24:24;101961.25;;;10.55;99.40
42587;BME280;28216;53.362;-6.288;2022-09-16T05:26:50;101960.66;;;10.52;99.68
42587;BME280;28216;53.362;-6.288;2022-09-16T05:29:16;101967.00;;;10.49;99.94
42587;BME280;28216;53.362;-6.288;2022-09-16T05:31:43;101964.78;;;10.44;100.00
42587;BME280;28216;53.362;-6.288;2022-09-16T05:34:15;101964.91;;;10.43;100.00
42587;BME280;28216;53.362;-6.288;2022-09-16T05:36:42;101963.09;;;10.43;100.00
42587;BME280;28216;53.362;-6.288;2022-09-16T05:39:09;101970.16;;;10.43;100.00
42587;BME280;28216;53.362;-6.288;2022-09-16T05:41:35;101969.53;;;10.39;100.00
42587;BME280;28216;53.362;-6.288;2022-09-16T05:44:01;101966.34;;;10.36;100.00
42587;BME280;28216;53.362;-6.288;2022-09-16T05:46:27;101975.16;;;10.35;100.00
42587;BME280;28216;53.362;-6.288;2022-09-16T05:48:53;101976.97;;;10.34;100.00
42587;BME280;28216;53.362;-6.288;2022-09-16T05:51:21;101976.97;;;10.34;100.00
42587;BME280;28216;53.362;-6.288;2022-09-16T05:53:49;101978.75;;;10.34;100.00
42587;BME280;28216;53.362;-6.288;2022-09-16T05:56:21;101983.03;;;10.35;100.00
42587;BME280;28216;53.362;-6.288;2022-09-16T05:58:47;101982.91;;;10.36;100.00
42587;BME280;28216;53.362;-6.288;2022-09-16T06:01:15;101982.06;;;10.36;100.00
42587;BME280;28216;53.362;-6.288;2022-09-16T06:03:43;101986.63;;;10.34;100.00
42587;BME280;28216;53.362;-6.288;2022-09-16T06:06:17;101983.16;;;10.33;100.00
42587;BME280;28216;53.362;-6.288;2022-09-16T06:08:43;101989.38;;;10.32;100.00
42587;BME280;28216;53.362;-6.288;2022-09-16T06:11:10;101992.81;;;10.33;100.00
42587;BME280;28216;53.362;-6.288;2022-09-16T06:13:37;101994.59;;;10.32;99.98
42587;BME280;28216;53.362;-6.288;2022-09-16T06:16:04;102004.13;;;10.33;100.00
42587;BME280;28216;53.362;-6.288;2022-09-16T06:18:30;102000.94;;;10.30;100.00
42587;BME280;28216;53.362;-6.288;2022-09-16T06:20:56;102002.72;;;10.29;100.00
42587;BME280;28216;53.362;-6.288;2022-09-16T06:23:23;102012.94;;;10.32;100.00
42587;BME280;28216;53.362;-6.288;2022-09-16T06:25:58;102006.75;;;10.33;100.00
42587;BME280;28216;53.362;-6.288;2022-09-16T06:28:24;102009.75;;;10.29;100.00
42587;BME280;28216;53.362;-6.288;2022-09-16T06:31:15;102013.78;;;10.33;100.00
42587;BME280;28216;53.362;-6.288;2022-09-16T06:33:41;102021.53;;;10.34;100.00
42587;BME280;28216;53.362;-6.288;2022-09-16T06:36:08;102016.84;;;10.38;100.00
42587;BME280;28216;53.362;-6.288;2022-09-16T06:38:34;102019.25;;;10.41;100.00
42587;BME280;28216;53.362;-6.288;2022-09-16T06:41:02;102021.63;;;10.44;100.00
42587;BME280;28216;53.362;-6.288;2022-09-16T06:43:28;102027.00;;;10.42;100.00
42587;BME280;28216;53.362;-6.288;2022-09-16T06:46:06;102028.66;;;10.43;100.00
42587;BME280;28216;53.362;-6.288;2022-09-16T06:48:34;102032.81;;;10.46;100.00
42587;BME280;28216;53.362;-6.288;2022-09-16T06:51:02;102038.50;;;10.51;99.86
42587;BME280;28216;53.362;-6.288;2022-09-16T06:53:28;102043.50;;;10.54;99.92
42587;BME280;28216;53.362;-6.288;2022-09-16T06:55:55;102050.03;;;10.60;99.64
42587;BME280;28216;53.362;-6.288;2022-09-16T06:58:23;102041.91;;;10.63;99.68
42587;BME280;28216;53.362;-6.288;2022-09-16T07:00:49;102051.16;;;10.67;99.60
42587;BME280;28216;53.362;-6.288;2022-09-16T07:03:15;102049.13;;;10.70;99.67
42587;BME280;28216;53.362;-6.288;2022-09-16T07:05:40;102052.56;;;10.92;99.17
42587;BME280;28216;53.362;-6.288;2022-09-16T07:08:06;102053.00;;;11.58;97.25
42587;BME280;28216;53.362;-6.288;2022-09-16T07:14:32;102044.38;;;13.29;90.28
42587;BME280;28216;53.362;-6.288;2022-09-16T07:30:18;102050.91;;;16.30;79.31
42587;BME280;28216;53.362;-6.288;2022-09-16T07:32:43;102053.41;;;16.47;76.98
42587;BME280;28216;53.362;-6.288;2022-09-16T07:35:09;102060.50;;;16.47;75.13
42587;BME280;28216;53.362;-6.288;2022-09-16T07:37:34;102059.03;;;16.36;73.97
42587;BME280;28216;53.362;-6.288;2022-09-16T07:40:00;102060.16;;;16.17;72.97
42587;BME280;28216;53.362;-6.288;2022-09-16T07:42:28;102060.16;;;16.09;72.46
42587;BME280;28216;53.362;-6.288;2022-09-16T07:44:53;102066.25;;;15.94;72.09
42587;BME280;28216;53.362;-6.288;2022-09-16T07:47:18;102067.88;;;15.86;71.88
42587;BME280;28216;53.362;-6.288;2022-09-16T07:49:44;102072.00;;;15.81;71.37
42587;BME280;28216;53.362;-6.288;2022-09-16T07:52:09;102071.31;;;15.71;71.29
42587;BME280;28216;53.362;-6.288;2022-09-16T07:54:35;102073.69;;;15.56;71.37
42587;BME280;28216;53.362;-6.288;2022-09-16T07:57:00;102071.31;;;15.45;71.38
42587;BME280;28216;53.362;-6.288;2022-09-16T07:59:26;102082.38;;;15.40;71.55
42587;BME280;28216;53.362;-6.288;2022-09-16T08:01:51;102077.22;;;15.31;71.77
42587;BME280;28216;53.362;-6.288;2022-09-16T08:04:18;102080.97;;;15.20;72.03
42587;BME280;28216;53.362;-6.288;2022-09-16T08:06:44;102080.44;;;15.16;72.09
42587;BME280;28216;53.362;-6.288;2022-09-16T08:09:09;102078.16;;;15.21;72.42
42587;BME280;28216;53.362;-6.288;2022-09-16T08:11:35;102082.97;;;15.26;72.60
42587;BME280;28216;53.362;-6.288;2022-09-16T08:14:00;102090.94;;;15.34;72.96
42587;BME280;28216;53.362;-6.288;2022-09-16T08:16:26;102090.97;;;15.42;73.38
42587;BME280;28216;53.362;-6.288;2022-09-16T08:18:54;102088.03;;;15.53;73.41
42587;BME280;28216;53.362;-6.288;2022-09-16T08:21:22;102101.53;;;15.68;73.58
42587;BME280;28216;53.362;-6.288;2022-09-16T08:23:48;102098.94;;;15.84;73.67
42587;BME280;28216;53.362;-6.288;2022-09-16T08:29:35;102108.41;;;15.95;73.27
42587;BME280;28216;53.362;-6.288;2022-09-16T08:32:01;102112.38;;;15.99;72.36
42587;BME280;28216;53.362;-6.288;2022-09-16T08:34:26;102118.16;;;16.03;71.68
42587;BME280;28216;53.362;-6.288;2022-09-16T09:56:53;102157.47;;;16.48;64.61
42587;BME280;28216;53.362;-6.288;2022-09-16T09:59:42;102165.25;;;16.41;64.21
42587;BME280;28216;53.362;-6.288;2022-09-16T10:03:12;102165.69;;;16.29;63.23
42587;BME280;28216;53.362;-6.288;2022-09-16T10:05:39;102165.19;;;16.25;63.84
42587;BME280;28216;53.362;-6.288;2022-09-16T10:10:54;102161.28;;;16.45;62.16
42587;BME280;28216;53.362;-6.288;2022-09-16T10:13:21;102163.25;;;16.43;62.33
42587;BME280;28216;53.362;-6.288;2022-09-16T10:15:48;102168.72;;;16.42;61.82
42587;BME280;28216;53.362;-6.288;2022-09-16T10:18:28;102166.09;;;16.50;61.47
42587;BME280;28216;53.362;-6.288;2022-09-16T10:21:05;102165.97;;;16.68;59.48
42587;BME280;28216;53.362;-6.288;2022-09-16T10:23:33;102174.06;;;16.74;59.25
42587;BME280;28216;53.362;-6.288;2022-09-16T10:26:26;102171.25;;;16.68;58.14
42587;BME280;28216;53.362;-6.288;2022-09-16T11:44:20;102168.56;;;17.41;53.69
42587;BME280;28216;53.362;-6.288;2022-09-16T11:49:42;102165.63;;;17.11;54.13
42587;BME280;28216;53.362;-6.288;2022-09-16T11:57:20;102167.50;;;17.66;53.01
42587;BME280;28216;53.362;-6.288;2022-09-16T12:00:15;102171.16;;;17.57;52.34
42587;BME280;28216;53.362;-6.288;2022-09-16T12:05:42;102175.03;;;17.38;53.33
42587;BME280;28216;53.362;-6.288;2022-09-16T12:10:50;102160.53;;;17.65;51.94
42587;BME280;28216;53.362;-6.288;2022-09-16T12:21:15;102176.38;;;17.26;52.24
42587;BME280;28216;53.362;-6.288;2022-09-16T12:23:48;102183.19;;;17.12;52.75
42587;BME280;28216;53.362;-6.288;2022-09-16T12:26:26;102187.47;;;17.05;52.27
42587;BME280;28216;53.362;-6.288;2022-09-16T12:29:14;102184.50;;;17.25;51.78
42587;BME280;28216;53.362;-6.288;2022-09-16T12:31:51;102193.91;;;17.43;50.97
42587;BME280;28216;53.362;-6.288;2022-09-16T12:39:48;102200.81;;;17.69;50.80
42587;BME280;28216;53.362;-6.288;2022-09-16T12:42:35;102185.88;;;17.76;50.87
42587;BME280;28216;53.362;-6.288;2022-09-16T12:45:29;102191.03;;;17.69;49.75
42587;BME280;28216;53.362;-6.288;2022-09-16T12:54:26;102177.09;;;17.75;49.58
42587;BME280;28216;53.362;-6.288;2022-09-16T13:02:28;102169.78;;;17.77;49.50
42587;BME280;28216;53.362;-6.288;2022-09-16T13:05:09;102173.47;;;17.68;49.25
42587;BME280;28216;53.362;-6.288;2022-09-16T13:07:35;102167.69;;;17.57;49.62
42587;BME280;28216;53.362;-6.288;2022-09-16T13:10:16;102162.84;;;17.60;49.23
42587;BME280;28216;53.362;-6.288;2022-09-16T13:12:51;102153.91;;;17.61;49.30
42587;BME280;28216;53.362;-6.288;2022-09-16T13:15:41;102156.22;;;17.72;49.11
42587;BME280;28216;53.362;-6.288;2022-09-16T13:20:48;102157.72;;;17.67;48.99
42587;BME280;28216;53.362;-6.288;2022-09-16T13:23:26;102149.09;;;17.65;49.30
42587;BME280;28216;53.362;-6.288;2022-09-16T13:25:57;102158.22;;;17.62;48.88
42587;BME280;28216;53.362;-6.288;2022-09-16T13:33:41;102156.94;;;17.42;49.72
42587;BME280;28216;53.362;-6.288;2022-09-16T13:38:57;102166.66;;;17.66;48.84
42587;BME280;28216;53.362;-6.288;2022-09-16T13:41:39;102153.91;;;17.61;48.15
42587;BME280;28216;53.362;-6.288;2022-09-16T13:47:14;102165.13;;;17.24;48.50
42587;BME280;28216;53.362;-6.288;2022-09-16T13:52:11;102166.44;;;17.04;49.69
42587;BME280;28216;53.362;-6.288;2022-09-16T13:55:04;102161.47;;;17.09;49.14
42587;BME280;28216;53.362;-6.288;2022-09-16T13:57:45;102158.31;;;17.22;48.22
42587;BME280;28216;53.362;-6.288;2022-09-16T14:00:23;102158.81;;;17.33;48.10
42587;BME280;28216;53.362;-6.288;2022-09-16T14:11:06;102162.97;;;17.20;46.04
42587;BME280;28216;53.362;-6.288;2022-09-16T14:13:43;102164.13;;;17.17;46.02
42587;BME280;28216;53.362;-6.288;2022-09-16T14:16:21;102156.81;;;17.27;46.40
42587;BME280;28216;53.362;-6.288;2022-09-16T14:19:05;102149.97;;;17.49;45.93
42587;BME280;28216;53.362;-6.288;2022-09-16T14:21:31;102150.25;;;17.70;46.15
42587;BME280;28216;53.362;-6.288;2022-09-16T14:26:54;102164.59;;;17.92;46.69
42587;BME280;28216;53.362;-6.288;2022-09-16T14:29:22;102165.47;;;17.85;46.94
42587;BME280;28216;53.362;-6.288;2022-09-16T14:31:50;102162.81;;;17.76;47.34
42587;BME280;28216;53.362;-6.288;2022-09-16T14:34:36;102163.84;;;17.59;47.15
42587;BME280;28216;53.362;-6.288;2022-09-16T14:37:03;102156.44;;;17.46;47.45
42587;BME280;28216;53.362;-6.288;2022-09-16T14:39:30;102165.09;;;17.32;47.61
42587;BME280;28216;53.362;-6.288;2022-09-16T14:41:59;102156.19;;;17.17;47.84
42587;BME280;28216;53.362;-6.288;2022-09-16T14:44:35;102156.50;;;17.06;47.91
42587;BME280;28216;53.362;-6.288;2022-09-16T14:49:42;102158.50;;;16.88;48.48
42587;BME280;28216;53.362;-6.288;2022-09-16T14:52:28;102152.22;;;16.80;48.99
42587;BME280;28216;53.362;-6.288;2022-09-16T14:54:57;102148.41;;;16.75;49.32
42587;BME280;28216;53.362;-6.288;2022-09-16T14:57:27;102155.03;;;16.71;49.58
42587;BME280;28216;53.362;-6.288;2022-09-16T15:00:00;102159.66;;;16.77;49.61
42587;BME280;28216;53.362;-6.288;2022-09-16T15:04:58;102155.03;;;17.11;49.24
42587;BME280;28216;53.362;-6.288;2022-09-16T15:07:38;102150.19;;;17.31;48.71
42587;BME280;28216;53.362;-6.288;2022-09-16T15:10:07;102151.47;;;17.43;48.47
42587;BME280;28216;53.362;-6.288;2022-09-16T15:12:44;102160.44;;;17.42;47.84
42587;BME280;28216;53.362;-6.288;2022-09-16T15:15:31;102148.84;;;17.35;47.35
42587;BME280;28216;53.362;-6.288;2022-09-16T15:18:11;102143.72;;;17.34;47.31
42587;BME280;28216;53.362;-6.288;2022-09-16T15:20:49;102158.47;;;17.36;47.48
42587;BME280;28216;53.362;-6.288;2022-09-16T15:23:24;102153.84;;;17.30;47.22
42587;BME280;28216;53.362;-6.288;2022-09-16T15:26:04;102154.69;;;17.23;47.68
42587;BME280;28216;53.362;-6.288;2022-09-16T15:28:30;102159.00;;;17.15;48.07
42587;BME280;28216;53.362;-6.288;2022-09-16T15:30:56;102158.31;;;17.05;48.21
42587;BME280;28216;53.362;-6.288;2022-09-16T15:33:33;102165.13;;;17.00;48.30
42587;BME280;28216;53.362;-6.288;2022-09-16T15:36:01;102162.81;;;16.97;48.82
42587;BME280;28216;53.362;-6.288;2022-09-16T15:38:27;102160.50;;;16.94;48.96
42587;BME280;28216;53.362;-6.288;2022-09-16T15:41:03;102150.06;;;16.84;48.83
42587;BME280;28216;53.362;-6.288;2022-09-16T15:43:34;102150.56;;;16.71;48.87
42587;BME280;28216;53.362;-6.288;2022-09-16T15:46:12;102151.69;;;16.61;48.87
42587;BME280;28216;53.362;-6.288;2022-09-16T15:48:44;102159.13;;;16.57;48.72
42587;BME280;28216;53.362;-6.288;2022-09-16T15:51:45;102154.66;;;16.58;48.71
42587;BME280;28216;53.362;-6.288;2022-09-16T15:59:43;102161.81;;;16.65;48.20
42587;BME280;28216;53.362;-6.288;2022-09-16T16:02:31;102165.75;;;16.61;48.09
42587;BME280;28216;53.362;-6.288;2022-09-16T16:05:07;102159.78;;;16.51;47.45
42587;BME280;28216;53.362;-6.288;2022-09-16T16:07:45;102159.47;;;16.46;47.51
42587;BME280;28216;53.362;-6.288;2022-09-16T16:12:46;102159.44;;;16.38;47.69
42587;BME280;28216;53.362;-6.288;2022-09-16T16:15:25;102161.44;;;16.36;47.78
42587;BME280;28216;53.362;-6.288;2022-09-16T16:17:53;102158.91;;;16.34;47.70
42587;BME280;28216;53.362;-6.288;2022-09-16T16:20:22;102162.25;;;16.36;47.70
42587;BME280;28216;53.362;-6.288;2022-09-16T16:22:48;102159.13;;;16.41;47.70
42587;BME280;28216;53.362;-6.288;2022-09-16T16:25:13;102164.44;;;16.49;47.74
42587;BME280;28216;53.362;-6.288;2022-09-16T16:27:39;102163.94;;;16.53;47.71
42587;BME280;28216;53.362;-6.288;2022-09-16T16:30:06;102162.44;;;16.59;47.95
42587;BME280;28216;53.362;-6.288;2022-09-16T16:32:31;102175.38;;;16.62;48.20
42587;BME280;28216;53.362;-6.288;2022-09-16T16:34:59;102165.09;;;16.59;48.22
42587;BME280;28216;53.362;-6.288;2022-09-16T16:37:25;102168.41;;;16.61;48.16
42587;BME280;28216;53.362;-6.288;2022-09-16T16:39:51;102165.25;;;16.58;48.23
42587;BME280;28216;53.362;-6.288;2022-09-16T16:42:17;102164.28;;;16.59;48.47
42587;BME280;28216;53.362;-6.288;2022-09-16T16:44:42;102169.41;;;16.60;48.77
42587;BME280;28216;53.362;-6.288;2022-09-16T16:47:10;102164.28;;;16.59;48.97
42587;BME280;28216;53.362;-6.288;2022-09-16T16:49:36;102168.75;;;16.58;49.07
42587;BME280;28216;53.362;-6.288;2022-09-16T16:52:05;102173.69;;;16.53;49.34
42587;BME280;28216;53.362;-6.288;2022-09-16T16:54:31;102168.06;;;16.48;49.53
42587;BME280;28216;53.362;-6.288;2022-09-16T16:56:57;102172.69;;;16.46;49.76
42587;BME280;28216;53.362;-6.288;2022-09-16T16:59:24;102169.72;;;16.41;49.47
42587;BME280;28216;53.362;-6.288;2022-09-16T17:01:52;102183.09;;;16.39;49.49
42587;BME280;28216;53.362;-6.288;2022-09-16T17:04:18;102185.91;;;16.38;49.37
42587;BME280;28216;53.362;-6.288;2022-09-16T17:06:43;102180.78;;;16.36;49.52
42587;BME280;28216;53.362;-6.288;2022-09-16T17:09:09;102181.25;;;16.32;49.70
42587;BME280;28216;53.362;-6.288;2022-09-16T17:11:36;102182.41;;;16.29;50.13
42587;BME280;28216;53.362;-6.288;2022-09-16T17:14:13;102185.38;;;16.26;50.51
42587;BME280;28216;53.362;-6.288;2022-09-16T17:16:39;102180.88;;;16.18;51.08
42587;BME280;28216;53.362;-6.288;2022-09-16T17:19:04;102183.19;;;16.13;51.44
42587;BME280;28216;53.362;-6.288;2022-09-16T17:21:32;102189.44;;;16.04;51.95
42587;BME280;28216;53.362;-6.288;2022-09-16T17:23:58;102194.53;;;15.98;52.44
42587;BME280;28216;53.362;-6.288;2022-09-16T17:26:24;102194.19;;;15.93;52.96
42587;BME280;28216;53.362;-6.288;2022-09-16T17:28:51;102198.31;;;15.87;53.49
42587;BME280;28216;53.362;-6.288;2022-09-16T17:31:21;102203.09;;;15.83;53.88
42587;BME280;28216;53.362;-6.288;2022-09-16T17:33:49;102211.00;;;15.83;54.30
42587;BME280;28216;53.362;-6.288;2022-09-16T17:36:16;102202.56;;;15.80;54.40
42587;BME280;28216;53.362;-6.288;2022-09-16T17:38:42;102199.41;;;15.76;54.66
42587;BME280;28216;53.362;-6.288;2022-09-16T17:41:14;102198.75;;;15.74;55.04
42587;BME280;28216;53.362;-6.288;2022-09-16T17:43:41;102205.84;;;15.74;55.13
42587;BME280;28216;53.362;-6.288;2022-09-16T17:46:12;102202.53;;;15.72;55.14
42587;BME280;28216;53.362;-6.288;2022-09-16T17:48:38;102202.19;;;15.67;55.29
42587;BME280;28216;53.362;-6.288;2022-09-16T17:51:04;102202.50;;;15.64;55.08
42587;BME280;28216;53.362;-6.288;2022-09-16T17:53:29;102211.41;;;15.63;55.21